sensor_id;sensor_type;location;lat;lon;timestamp;P1;durP1;ratioP1;P2;durP2;ratioP2
9761;SDS011;4920;49.594;11.022;2022-08-19T00:01:57;27.30;;;24.50;;
9761;SDS011;4920;49.594;11.022;2022-08-19T00:04:26;29.02;;;24.10;;
9761;SDS011;4920;49.594;11.022;2022-08-19T00:07:01;27.52;;;24.60;;
9761;SDS011;4920;49.594;11.022;2022-08-19T00:09:30;26.75;;;23.85;;
9761;SDS011;4920;49.594;11.022;2022-08-19T00:11:59;29.63;;;26.58;;
9761;SDS011;4920;49.594;11.022;2022-08-19T00:14:28;28.50;;;24.63;;
9761;SDS011;4920;49.594;11.022;2022-08-19T00:16:58;27.08;;;24.17;;
9761;SDS011;4920;49.594;11.022;2022-08-19T00:19:27;27.73;;;24.27;;
9761;SDS011;4920;49.594;11.022;2022-08-19T00:21:56;28.58;;;25.50;;
9761;SDS011;4920;49.594;11.022;2022-08-19T00:24:26;27.58;;;24.77;;
9761;SDS011;4920;49.594;11.022;2022-08-19T00:26:55;28.33;;;25.17;;
9761;SDS011;4920;49.594;11.022;2022-08-19T00:29:44;28.00;;;24.90;;
9761;SDS011;4920;49.594;11.022;2022-08-19T00:32:18;28.67;;;25.73;;
9761;SDS011;4920;49.594;11.022;2022-08-19T00:34:46;27.67;;;24.88;;
9761;SDS011;4920;49.594;11.022;2022-08-19T00:37:15;28.58;;;25.55;;
9761;SDS011;4920;49.594;11.022;2022-08-19T00:39:45;29.10;;;25.77;;
9761;SDS011;4920;49.594;11.022;2022-08-19T00:42:14;29.58;;;26.45;;
9761;SDS011;4920;49.594;11.022;2022-08-19T00:44:43;31.08;;;26.50;;
9761;SDS011;4920;49.594;11.022;2022-08-19T00:47:12;29.75;;;25.80;;
9761;SDS011;4920;49.594;11.022;2022-08-19T00:49:43;28.95;;;25.85;;
9761;SDS011;4920;49.594;11.022;2022-08-19T00:52:19;28.48;;;25.35;;
9761;SDS011;4920;49.594;11.022;2022-08-19T00:54:53;28.42;;;25.42;;
9761;SDS011;4920;49.594;11.022;2022-08-19T00:57:23;27.75;;;24.77;;
9761;SDS011;4920;49.594;11.022;2022-08-19T00:59:56;30.00;;;25.75;;
9761;SDS011;4920;49.594;11.022;2022-08-19T01:02:29;27.10;;;24.35;;
9761;SDS011;4920;49.594;11.022;2022-08-19T01:04:59;28.02;;;25.10;;
9761;SDS011;4920;49.594;11.022;2022-08-19T01:07:29;27.45;;;24.73;;
9761;SDS011;4920;49.594;11.022;2022-08-19T01:10:06;27.83;;;24.88;;
9761;SDS011;4920;49.594;11.022;2022-08-19T01:12:37;27.63;;;24.83;;
9761;SDS011;4920;49.594;11.022;2022-08-19T01:15:06;27.88;;;25.10;;
9761;SDS011;4920;49.594;11.022;2022-08-19T01:17:38;28.33;;;24.98;;
9761;SDS011;4920;49.594;11.022;2022-08-19T01:20:10;27.48;;;24.65;;
9761;SDS011;4920;49.594;11.022;2022-08-19T01:22:43;28.00;;;25.02;;
9761;SDS011;4920;49.594;11.022;2022-08-19T01:25:15;27.38;;;24.65;;
9761;SDS011;4920;49.594;11.022;2022-08-19T01:27:46;27.83;;;24.88;;
9761;SDS011;4920;49.594;11.022;2022-08-19T01:30:20;27.20;;;24.38;;
9761;SDS011;4920;49.594;11.022;2022-08-19T01:32:50;26.55;;;23.85;;
9761;SDS011;4920;49.594;11.022;2022-08-19T01:35:20;28.63;;;25.60;;
9761;SDS011;4920;49.594;11.022;2022-08-19T01:37:52;27.60;;;24.17;;
9761;SDS011;4920;49.594;11.022;2022-08-19T01:40:26;28.13;;;25.10;;
9761;SDS011;4920;49.594;11.022;2022-08-19T01:42:57;29.42;;;24.98;;
9761;SDS011;4920;49.594;11.022;2022-08-19T01:45:27;28.90;;;25.27;;
9761;SDS011;4920;49.594;11.022;2022-08-19T01:47:56;27.50;;;24.65;;
9761;SDS011;4920;49.594;11.022;2022-08-19T01:50:28;27.95;;;24.95;;
9761;SDS011;4920;49.594;11.022;2022-08-19T01:52:59;27.95;;;25.13;;
9761;SDS011;4920;49.594;11.022;2022-08-19T01:55:33;27.98;;;25.15;;
9761;SDS011;4920;49.594;11.022;2022-08-19T01:58:08;28.55;;;25.52;;
9761;SDS011;4920;49.594;11.022;2022-08-19T02:00:40;28.98;;;26.02;;
9761;SDS011;4920;49.594;11.022;2022-08-19T02:03:09;28.85;;;25.65;;
9761;SDS011;4920;49.594;11.022;2022-08-19T02:05:38;33.58;;;28.20;;
9761;SDS011;4920;49.594;11.022;2022-08-19T02:08:09;30.90;;;26.77;;
9761;SDS011;4920;49.594;11.022;2022-08-19T02:10:39;30.27;;;26.98;;
9761;SDS011;4920;49.594;11.022;2022-08-19T02:13:09;29.35;;;26.25;;
9761;SDS011;4920;49.594;11.022;2022-08-19T02:15:38;30.23;;;27.02;;
9761;SDS011;4920;49.594;11.022;2022-08-19T02:18:07;30.52;;;27.27;;
9761;SDS011;4920;49.594;11.022;2022-08-19T02:20:36;28.90;;;26.00;;
9761;SDS011;4920;49.594;11.022;2022-08-19T02:23:06;31.52;;;27.27;;
9761;SDS011;4920;49.594;11.022;2022-08-19T02:25:43;32.15;;;27.33;;
9761;SDS011;4920;49.594;11.022;2022-08-19T02:28:13;30.83;;;27.60;;
9761;SDS011;4920;49.594;11.022;2022-08-19T02:30:45;31.88;;;27.83;;
9761;SDS011;4920;49.594;11.022;2022-08-19T02:33:15;30.42;;;27.13;;
9761;SDS011;4920;49.594;11.022;2022-08-19T02:35:44;31.63;;;28.25;;
9761;SDS011;4920;49.594;11.022;2022-08-19T02:38:14;31.55;;;28.15;;
9761;SDS011;4920;49.594;11.022;2022-08-19T02:40:57;30.25;;;26.98;;
9761;SDS011;4920;49.594;11.022;2022-08-19T02:43:27;31.02;;;26.88;;
9761;SDS011;4920;49.594;11.022;2022-08-19T02:46:00;29.20;;;25.73;;
9761;SDS011;4920;49.594;11.022;2022-08-19T02:48:29;31.23;;;27.13;;
9761;SDS011;4920;49.594;11.022;2022-08-19T02:50:59;31.70;;;27.38;;
9761;SDS011;4920;49.594;11.022;2022-08-19T02:53:28;29.33;;;26.23;;
9761;SDS011;4920;49.594;11.022;2022-08-19T02:55:58;30.05;;;26.95;;
9761;SDS011;4920;49.594;11.022;2022-08-19T02:58:26;29.65;;;26.55;;
9761;SDS011;4920;49.594;11.022;2022-08-19T03:00:56;30.02;;;26.83;;
9761;SDS011;4920;49.594;11.022;2022-08-19T03:03:25;30.15;;;26.90;;
9761;SDS011;4920;49.594;11.022;2022-08-19T03:06:02;31.70;;;26.70;;
9761;SDS011;4920;49.594;11.022;2022-08-19T03:08:32;29.83;;;26.58;;
9761;SDS011;4920;49.594;11.022;2022-08-19T03:11:02;30.38;;;26.30;;
9761;SDS011;4920;49.594;11.022;2022-08-19T03:13:31;29.33;;;25.98;;
9761;SDS011;4920;49.594;11.022;2022-08-19T03:16:00;29.85;;;26.65;;
9761;SDS011;4920;49.594;11.022;2022-08-19T03:18:33;29.92;;;26.75;;
9761;SDS011;4920;49.594;11.022;2022-08-19T03:21:02;33.28;;;27.45;;
9761;SDS011;4920;49.594;11.022;2022-08-19T03:23:31;29.77;;;26.60;;
9761;SDS011;4920;49.594;11.022;2022-08-19T03:26:02;30.20;;;27.10;;
9761;SDS011;4920;49.594;11.022;2022-08-19T03:28:42;30.33;;;27.08;;
9761;SDS011;4920;49.594;11.022;2022-08-19T03:31:18;33.03;;;27.73;;
9761;SDS011;4920;49.594;11.022;2022-08-19T03:34:09;30.48;;;27.00;;
9761;SDS011;4920;49.594;11.022;2022-08-19T03:36:39;32.22;;;27.40;;
9761;SDS011;4920;49.594;11.022;2022-08-19T03:39:07;31.58;;;27.00;;
9761;SDS011;4920;49.594;11.022;2022-08-19T03:41:39;32.78;;;28.77;;
9761;SDS011;4920;49.594;11.022;2022-08-19T03:44:11;32.88;;;27.90;;
9761;SDS011;4920;49.594;11.022;2022-08-19T03:46:44;31.02;;;27.67;;
9761;SDS011;4920;49.594;11.022;2022-08-19T03:49:14;30.73;;;27.52;;
9761;SDS011;4920;49.594;11.022;2022-08-19T03:51:44;30.60;;;27.10;;
9761;SDS011;4920;49.594;11.022;2022-08-19T03:54:14;32.13;;;28.60;;
9761;SDS011;4920;49.594;11.022;2022-08-19T03:56:47;32.65;;;28.40;;
9761;SDS011;4920;49.594;11.022;2022-08-19T03:59:19;33.55;;;29.52;;
9761;SDS011;4920;49.594;11.022;2022-08-19T04:01:51;32.97;;;29.33;;
9761;SDS011;4920;49.594;11.022;2022-08-19T04:04:21;34.88;;;30.38;;
9761;SDS011;4920;49.594;11.022;2022-08-19T04:06:50;37.22;;;31.75;;
9761;SDS011;4920;49.594;11.022;2022-08-19T04:09:19;36.05;;;31.45;;
9761;SDS011;4920;49.594;11.022;2022-08-19T04:11:50;38.35;;;31.02;;
9761;SDS011;4920;49.594;11.022;2022-08-19T04:14:21;36.75;;;30.90;;
9761;SDS011;4920;49.594;11.022;2022-08-19T04:16:51;38.22;;;31.50;;
9761;SDS011;4920;49.594;11.022;2022-08-19T04:19:20;36.90;;;29.90;;
9761;SDS011;4920;49.594;11.022;2022-08-19T04:21:50;37.83;;;31.40;;
9761;SDS011;4920;49.594;11.022;2022-08-19T04:24:21;35.88;;;30.70;;
9761;SDS011;4920;49.594;11.022;2022-08-19T04:26:51;38.42;;;31.90;;
9761;SDS011;4920;49.594;11.022;2022-08-19T04:29:21;37.38;;;31.40;;
9761;SDS011;4920;49.594;11.022;2022-08-19T04:31:52;38.50;;;31.70;;
9761;SDS011;4920;49.594;11.022;2022-08-19T04:34:22;37.42;;;30.85;;
9761;SDS011;4920;49.594;11.022;2022-08-19T04:36:55;40.25;;;31.92;;
9761;SDS011;4920;49.594;11.022;2022-08-19T04:39:26;41.75;;;31.50;;
9761;SDS011;4920;49.594;11.022;2022-08-19T04:42:12;39.90;;;31.42;;
9761;SDS011;4920;49.594;11.022;2022-08-19T04:44:58;38.85;;;32.10;;
9761;SDS011;4920;49.594;11.022;2022-08-19T04:47:27;39.88;;;30.80;;
9761;SDS011;4920;49.594;11.022;2022-08-19T04:50:17;40.75;;;31.83;;
9761;SDS011;4920;49.594;11.022;2022-08-19T04:52:46;39.00;;;31.42;;
9761;SDS011;4920;49.594;11.022;2022-08-19T04:55:15;39.83;;;31.55;;
9761;SDS011;4920;49.594;11.022;2022-08-19T04:57:46;39.30;;;31.00;;
9761;SDS011;4920;49.594;11.022;2022-08-19T05:00:14;36.58;;;30.25;;
9761;SDS011;4920;49.594;11.022;2022-08-19T05:02:43;38.33;;;29.27;;
9761;SDS011;4920;49.594;11.022;2022-08-19T05:05:12;37.35;;;29.42;;
9761;SDS011;4920;49.594;11.022;2022-08-19T05:07:40;39.85;;;30.92;;
9761;SDS011;4920;49.594;11.022;2022-08-19T05:10:09;33.88;;;29.92;;
9761;SDS011;4920;49.594;11.022;2022-08-19T05:12:38;34.88;;;29.70;;
9761;SDS011;4920;49.594;11.022;2022-08-19T05:15:09;36.70;;;29.52;;
9761;SDS011;4920;49.594;11.022;2022-08-19T05:17:38;36.95;;;29.92;;
9761;SDS011;4920;49.594;11.022;2022-08-19T05:20:27;36.80;;;29.83;;
9761;SDS011;4920;49.594;11.022;2022-08-19T05:23:13;36.67;;;29.30;;
9761;SDS011;4920;49.594;11.022;2022-08-19T05:25:48;35.17;;;29.50;;
9761;SDS011;4920;49.594;11.022;2022-08-19T05:28:18;36.88;;;29.85;;
9761;SDS011;4920;49.594;11.022;2022-08-19T05:30:49;37.22;;;29.30;;
9761;SDS011;4920;49.594;11.022;2022-08-19T05:33:17;34.90;;;28.67;;
9761;SDS011;4920;49.594;11.022;2022-08-19T05:35:46;35.92;;;28.52;;
9761;SDS011;4920;49.594;11.022;2022-08-19T05:38:16;34.63;;;28.55;;
9761;SDS011;4920;49.594;11.022;2022-08-19T05:40:45;34.92;;;28.92;;
9761;SDS011;4920;49.594;11.022;2022-08-19T05:43:16;34.80;;;28.80;;
9761;SDS011;4920;49.594;11.022;2022-08-19T05:45:44;34.50;;;29.60;;
9761;SDS011;4920;49.594;11.022;2022-08-19T05:48:14;35.72;;;29.15;;
9761;SDS011;4920;49.594;11.022;2022-08-19T05:50:43;34.10;;;27.45;;
9761;SDS011;4920;49.594;11.022;2022-08-19T05:53:13;33.22;;;27.35;;
9761;SDS011;4920;49.594;11.022;2022-08-19T05:55:42;31.30;;;27.02;;
9761;SDS011;4920;49.594;11.022;2022-08-19T05:58:11;34.83;;;28.95;;
9761;SDS011;4920;49.594;11.022;2022-08-19T06:00:40;35.17;;;27.55;;
9761;SDS011;4920;49.594;11.022;2022-08-19T06:03:11;33.03;;;27.65;;
9761;SDS011;4920;49.594;11.022;2022-08-19T06:05:41;31.92;;;27.00;;
9761;SDS011;4920;49.594;11.022;2022-08-19T06:08:18;31.30;;;26.63;;
9761;SDS011;4920;49.594;11.022;2022-08-19T06:11:13;33.65;;;26.92;;
9761;SDS011;4920;49.594;11.022;2022-08-19T06:13:44;32.60;;;26.67;;
9761;SDS011;4920;49.594;11.022;2022-08-19T06:16:25;32.83;;;27.60;;
9761;SDS011;4920;49.594;11.022;2022-08-19T06:18:55;29.27;;;25.88;;
9761;SDS011;4920;49.594;11.022;2022-08-19T06:21:27;28.70;;;25.45;;
9761;SDS011;4920;49.594;11.022;2022-08-19T06:23:56;28.30;;;24.83;;
9761;SDS011;4920;49.594;11.022;2022-08-19T06:26:26;28.92;;;25.60;;
9761;SDS011;4920;49.594;11.022;2022-08-19T06:28:54;30.98;;;25.52;;
9761;SDS011;4920;49.594;11.022;2022-08-19T06:31:24;29.50;;;26.38;;
9761;SDS011;4920;49.594;11.022;2022-08-19T06:33:54;30.20;;;25.70;;
9761;SDS011;4920;49.594;11.022;2022-08-19T06:36:24;30.13;;;25.73;;
9761;SDS011;4920;49.594;11.022;2022-08-19T06:38:57;33.60;;;26.92;;
9761;SDS011;4920;49.594;11.022;2022-08-19T06:41:27;31.33;;;23.90;;
9761;SDS011;4920;49.594;11.022;2022-08-19T06:43:56;28.38;;;25.27;;
9761;SDS011;4920;49.594;11.022;2022-08-19T06:46:25;28.42;;;24.73;;
9761;SDS011;4920;49.594;11.022;2022-08-19T06:48:54;28.70;;;24.83;;
9761;SDS011;4920;49.594;11.022;2022-08-19T06:51:22;28.65;;;25.15;;
9761;SDS011;4920;49.594;11.022;2022-08-19T06:53:58;30.98;;;24.63;;
9761;SDS011;4920;49.594;11.022;2022-08-19T06:56:29;28.50;;;24.35;;
9761;SDS011;4920;49.594;11.022;2022-08-19T06:59:00;28.85;;;25.75;;
9761;SDS011;4920;49.594;11.022;2022-08-19T07:01:34;27.65;;;24.35;;
9761;SDS011;4920;49.594;11.022;2022-08-19T07:04:04;32.22;;;25.83;;
9761;SDS011;4920;49.594;11.022;2022-08-19T07:06:37;27.00;;;23.90;;
9761;SDS011;4920;49.594;11.022;2022-08-19T07:09:13;27.52;;;24.38;;
9761;SDS011;4920;49.594;11.022;2022-08-19T07:11:45;26.45;;;23.70;;
9761;SDS011;4920;49.594;11.022;2022-08-19T07:14:15;30.20;;;24.52;;
9761;SDS011;4920;49.594;11.022;2022-08-19T07:16:46;27.70;;;24.60;;
9761;SDS011;4920;49.594;11.022;2022-08-19T07:19:17;26.92;;;23.67;;
9761;SDS011;4920;49.594;11.022;2022-08-19T07:21:46;27.08;;;24.17;;
9761;SDS011;4920;49.594;11.022;2022-08-19T07:24:17;27.38;;;24.48;;
9761;SDS011;4920;49.594;11.022;2022-08-19T07:26:46;25.52;;;22.50;;
9761;SDS011;4920;49.594;11.022;2022-08-19T07:29:18;26.02;;;23.23;;
9761;SDS011;4920;49.594;11.022;2022-08-19T07:31:51;25.58;;;22.73;;
9761;SDS011;4920;49.594;11.022;2022-08-19T07:34:23;24.90;;;22.05;;
9761;SDS011;4920;49.594;11.022;2022-08-19T07:36:52;24.27;;;21.70;;
9761;SDS011;4920;49.594;11.022;2022-08-19T07:39:23;26.98;;;24.08;;
9761;SDS011;4920;49.594;11.022;2022-08-19T07:41:53;25.63;;;22.92;;
9761;SDS011;4920;49.594;11.022;2022-08-19T07:44:22;24.73;;;22.17;;
9761;SDS011;4920;49.594;11.022;2022-08-19T07:46:52;27.20;;;24.27;;
9761;SDS011;4920;49.594;11.022;2022-08-19T07:49:22;28.42;;;24.30;;
9761;SDS011;4920;49.594;11.022;2022-08-19T07:51:52;28.35;;;23.92;;
9761;SDS011;4920;49.594;11.022;2022-08-19T07:54:24;28.20;;;25.05;;
9761;SDS011;4920;49.594;11.022;2022-08-19T07:56:57;26.15;;;22.60;;
9761;SDS011;4920;49.594;11.022;2022-08-19T07:59:27;26.92;;;23.38;;
9761;SDS011;4920;49.594;11.022;2022-08-19T08:01:56;31.90;;;24.95;;
9761;SDS011;4920;49.594;11.022;2022-08-19T08:04:27;30.13;;;24.35;;
9761;SDS011;4920;49.594;11.022;2022-08-19T08:07:12;31.42;;;25.55;;
9761;SDS011;4920;49.594;11.022;2022-08-19T08:10:03;27.52;;;24.40;;
9761;SDS011;4920;49.594;11.022;2022-08-19T08:12:45;29.02;;;24.45;;
9761;SDS011;4920;49.594;11.022;2022-08-19T08:15:34;28.20;;;23.27;;
9761;SDS011;4920;49.594;11.022;2022-08-19T08:18:08;28.25;;;24.98;;
9761;SDS011;4920;49.594;11.022;2022-08-19T08:20:37;28.25;;;24.00;;
9761;SDS011;4920;49.594;11.022;2022-08-19T08:23:06;28.65;;;24.60;;
9761;SDS011;4920;49.594;11.022;2022-08-19T08:25:53;28.63;;;24.08;;
9761;SDS011;4920;49.594;11.022;2022-08-19T08:28:25;27.60;;;23.70;;
9761;SDS011;4920;49.594;11.022;2022-08-19T08:30:56;28.02;;;23.67;;
9761;SDS011;4920;49.594;11.022;2022-08-19T08:33:26;25.38;;;22.23;;
9761;SDS011;4920;49.594;11.022;2022-08-19T08:36:00;23.67;;;20.58;;
9761;SDS011;4920;49.594;11.022;2022-08-19T08:38:30;25.92;;;21.77;;
9761;SDS011;4920;49.594;11.022;2022-08-19T08:41:09;23.58;;;21.08;;
9761;SDS011;4920;49.594;11.022;2022-08-19T08:43:46;23.13;;;20.63;;
9761;SDS011;4920;49.594;11.022;2022-08-19T08:46:19;23.30;;;20.80;;
9761;SDS011;4920;49.594;11.022;2022-08-19T08:49:00;22.67;;;20.25;;
9761;SDS011;4920;49.594;11.022;2022-08-19T08:51:37;23.75;;;20.80;;
9761;SDS011;4920;49.594;11.022;2022-08-19T08:54:10;21.92;;;19.60;;
9761;SDS011;4920;49.594;11.022;2022-08-19T08:56:42;22.48;;;20.08;;
9761;SDS011;4920;49.594;11.022;2022-08-19T08:59:12;23.40;;;20.92;;
9761;SDS011;4920;49.594;11.022;2022-08-19T09:01:48;21.42;;;18.65;;
9761;SDS011;4920;49.594;11.022;2022-08-19T09:04:17;22.52;;;19.98;;
9761;SDS011;4920;49.594;11.022;2022-08-19T09:06:49;22.98;;;20.55;;
9761;SDS011;4920;49.594;11.022;2022-08-19T09:09:25;24.35;;;21.75;;
9761;SDS011;4920;49.594;11.022;2022-08-19T09:12:04;24.92;;;22.17;;
9761;SDS011;4920;49.594;11.022;2022-08-19T09:14:40;26.58;;;21.73;;
9761;SDS011;4920;49.594;11.022;2022-08-19T09:17:18;24.80;;;20.75;;
9761;SDS011;4920;49.594;11.022;2022-08-19T09:19:58;25.33;;;22.00;;
9761;SDS011;4920;49.594;11.022;2022-08-19T09:22:34;26.10;;;22.58;;
9761;SDS011;4920;49.594;11.022;2022-08-19T09:25:04;23.92;;;20.83;;
9761;SDS011;4920;49.594;11.022;2022-08-19T09:27:38;25.85;;;21.85;;
9761;SDS011;4920;49.594;11.022;2022-08-19T09:30:10;25.33;;;21.45;;
9761;SDS011;4920;49.594;11.022;2022-08-19T09:32:42;27.00;;;21.33;;
9761;SDS011;4920;49.594;11.022;2022-08-19T09:35:12;24.50;;;21.17;;
9761;SDS011;4920;49.594;11.022;2022-08-19T09:37:42;24.48;;;20.95;;
9761;SDS011;4920;49.594;11.022;2022-08-19T09:40:11;23.95;;;20.60;;
9761;SDS011;4920;49.594;11.022;2022-08-19T09:42:42;24.25;;;21.65;;
9761;SDS011;4920;49.594;11.022;2022-08-19T09:45:16;22.10;;;19.77;;
9761;SDS011;4920;49.594;11.022;2022-08-19T09:47:47;23.88;;;21.27;;
9761;SDS011;4920;49.594;11.022;2022-08-19T09:50:15;23.75;;;20.83;;
9761;SDS011;4920;49.594;11.022;2022-08-19T09:52:45;24.67;;;21.35;;
9761;SDS011;4920;49.594;11.022;2022-08-19T09:55:23;24.23;;;21.48;;
9761;SDS011;4920;49.594;11.022;2022-08-19T09:58:00;23.42;;;20.90;;
9761;SDS011;4920;49.594;11.022;2022-08-19T10:00:29;23.55;;;21.00;;
9761;SDS011;4920;49.594;11.022;2022-08-19T10:02:58;22.88;;;20.48;;
9761;SDS011;4920;49.594;11.022;2022-08-19T10:05:29;23.10;;;20.70;;
9761;SDS011;4920;49.594;11.022;2022-08-19T10:08:20;25.73;;;21.00;;
9761;SDS011;4920;49.594;11.022;2022-08-19T10:10:52;24.80;;;20.30;;
9761;SDS011;4920;49.594;11.022;2022-08-19T10:13:23;23.83;;;20.80;;
9761;SDS011;4920;49.594;11.022;2022-08-19T10:15:54;22.65;;;20.08;;
9761;SDS011;4920;49.594;11.022;2022-08-19T10:18:31;21.33;;;18.98;;
9761;SDS011;4920;49.594;11.022;2022-08-19T10:21:03;21.13;;;18.83;;
9761;SDS011;4920;49.594;11.022;2022-08-19T10:23:37;20.83;;;18.65;;
9761;SDS011;4920;49.594;11.022;2022-08-19T10:26:07;21.92;;;18.42;;
9761;SDS011;4920;49.594;11.022;2022-08-19T10:28:37;20.48;;;18.38;;
9761;SDS011;4920;49.594;11.022;2022-08-19T10:31:09;19.77;;;17.77;;
9761;SDS011;4920;49.594;11.022;2022-08-19T10:33:40;18.70;;;16.77;;
9761;SDS011;4920;49.594;11.022;2022-08-19T10:36:20;19.45;;;17.45;;
9761;SDS011;4920;49.594;11.022;2022-08-19T10:38:51;18.40;;;16.45;;
9761;SDS011;4920;49.594;11.022;2022-08-19T10:41:24;22.40;;;18.52;;
9761;SDS011;4920;49.594;11.022;2022-08-19T10:43:56;19.70;;;17.25;;
9761;SDS011;4920;49.594;11.022;2022-08-19T10:46:30;18.70;;;16.77;;
9761;SDS011;4920;49.594;11.022;2022-08-19T10:49:00;19.42;;;17.40;;
9761;SDS011;4920;49.594;11.022;2022-08-19T10:51:30;18.95;;;16.95;;
9761;SDS011;4920;49.594;11.022;2022-08-19T10:54:16;19.73;;;17.83;;
9761;SDS011;4920;49.594;11.022;2022-08-19T10:56:56;21.80;;;17.50;;
9761;SDS011;4920;49.594;11.022;2022-08-19T10:59:26;19.67;;;17.55;;
9761;SDS011;4920;49.594;11.022;2022-08-19T11:02:02;19.65;;;17.63;;
9761;SDS011;4920;49.594;11.022;2022-08-19T11:04:32;19.40;;;17.35;;
9761;SDS011;4920;49.594;11.022;2022-08-19T11:07:01;20.85;;;18.65;;
9761;SDS011;4920;49.594;11.022;2022-08-19T11:09:31;19.48;;;17.02;;
9761;SDS011;4920;49.594;11.022;2022-08-19T11:12:04;19.23;;;17.15;;
9761;SDS011;4920;49.594;11.022;2022-08-19T11:14:35;18.33;;;16.52;;
9761;SDS011;4920;49.594;11.022;2022-08-19T11:17:04;18.73;;;16.73;;
9761;SDS011;4920;49.594;11.022;2022-08-19T11:19:33;16.98;;;15.30;;
9761;SDS011;4920;49.594;11.022;2022-08-19T11:22:03;17.55;;;15.85;;
9761;SDS011;4920;49.594;11.022;2022-08-19T11:24:35;18.25;;;16.35;;
9761;SDS011;4920;49.594;11.022;2022-08-19T11:27:06;18.65;;;16.42;;
9761;SDS011;4920;49.594;11.022;2022-08-19T11:29:38;18.25;;;16.38;;
9761;SDS011;4920;49.594;11.022;2022-08-19T11:32:08;17.40;;;15.68;;
9761;SDS011;4920;49.594;11.022;2022-08-19T11:34:38;18.73;;;16.80;;
9761;SDS011;4920;49.594;11.022;2022-08-19T11:37:06;18.42;;;16.52;;
9761;SDS011;4920;49.594;11.022;2022-08-19T11:39:35;18.20;;;16.30;;
9761;SDS011;4920;49.594;11.022;2022-08-19T11:42:05;19.33;;;16.23;;
9761;SDS011;4920;49.594;11.022;2022-08-19T11:44:50;18.38;;;16.65;;
9761;SDS011;4920;49.594;11.022;2022-08-19T11:47:18;18.55;;;16.63;;
9761;SDS011;4920;49.594;11.022;2022-08-19T11:49:48;18.85;;;16.92;;
9761;SDS011;4920;49.594;11.022;2022-08-19T11:52:17;18.40;;;16.50;;
9761;SDS011;4920;49.594;11.022;2022-08-19T11:54:46;18.75;;;16.85;;
9761;SDS011;4920;49.594;11.022;2022-08-19T11:57:15;19.48;;;17.40;;
9761;SDS011;4920;49.594;11.022;2022-08-19T11:59:47;22.98;;;20.38;;
9761;SDS011;4920;49.594;11.022;2022-08-19T12:02:18;24.70;;;21.92;;
9761;SDS011;4920;49.594;11.022;2022-08-19T12:04:48;30.83;;;25.48;;
9761;SDS011;4920;49.594;11.022;2022-08-19T12:07:17;26.70;;;23.58;;
9761;SDS011;4920;49.594;11.022;2022-08-19T12:09:45;26.67;;;23.77;;
9761;SDS011;4920;49.594;11.022;2022-08-19T12:12:14;30.25;;;24.88;;
9761;SDS011;4920;49.594;11.022;2022-08-19T12:14:43;28.45;;;25.17;;
9761;SDS011;4920;49.594;11.022;2022-08-19T12:17:14;28.02;;;25.02;;
9761;SDS011;4920;49.594;11.022;2022-08-19T12:19:43;29.88;;;26.00;;
9761;SDS011;4920;49.594;11.022;2022-08-19T12:22:11;33.50;;;26.45;;
9761;SDS011;4920;49.594;11.022;2022-08-19T12:24:40;29.92;;;26.65;;
9761;SDS011;4920;49.594;11.022;2022-08-19T12:27:09;30.33;;;26.77;;
9761;SDS011;4920;49.594;11.022;2022-08-19T12:29:38;30.63;;;26.27;;
9761;SDS011;4920;49.594;11.022;2022-08-19T12:32:08;31.27;;;26.73;;
9761;SDS011;4920;49.594;11.022;2022-08-19T12:34:39;32.72;;;27.38;;
9761;SDS011;4920;49.594;11.022;2022-08-19T12:37:08;30.25;;;26.08;;
9761;SDS011;4920;49.594;11.022;2022-08-19T12:39:38;32.45;;;27.13;;
9761;SDS011;4920;49.594;11.022;2022-08-19T12:42:09;30.77;;;25.98;;
9761;SDS011;4920;49.594;11.022;2022-08-19T12:44:39;31.90;;;25.58;;
9761;SDS011;4920;49.594;11.022;2022-08-19T12:47:11;27.80;;;24.80;;
9761;SDS011;4920;49.594;11.022;2022-08-19T12:49:42;29.98;;;26.88;;
9761;SDS011;4920;49.594;11.022;2022-08-19T12:52:21;28.23;;;25.25;;
9761;SDS011;4920;49.594;11.022;2022-08-19T12:54:51;30.77;;;26.75;;
9761;SDS011;4920;49.594;11.022;2022-08-19T12:57:21;30.38;;;27.27;;
9761;SDS011;4920;49.594;11.022;2022-08-19T12:59:58;31.10;;;26.30;;
9761;SDS011;4920;49.594;11.022;2022-08-19T13:02:30;30.00;;;26.58;;
9761;SDS011;4920;49.594;11.022;2022-08-19T13:05:07;34.30;;;30.30;;
9761;SDS011;4920;49.594;11.022;2022-08-19T13:07:38;39.53;;;32.47;;
9761;SDS011;4920;49.594;11.022;2022-08-19T13:10:08;44.90;;;35.70;;
9761;SDS011;4920;49.594;11.022;2022-08-19T13:12:39;43.75;;;35.15;;
9761;SDS011;4920;49.594;11.022;2022-08-19T13:15:08;45.58;;;36.70;;
9761;SDS011;4920;49.594;11.022;2022-08-19T13:17:40;50.80;;;38.15;;
9761;SDS011;4920;49.594;11.022;2022-08-19T13:20:11;53.38;;;38.88;;
9761;SDS011;4920;49.594;11.022;2022-08-19T13:22:39;50.03;;;40.20;;
9761;SDS011;4920;49.594;11.022;2022-08-19T13:25:09;47.33;;;37.90;;
9761;SDS011;4920;49.594;11.022;2022-08-19T13:27:38;51.53;;;39.05;;
9761;SDS011;4920;49.594;11.022;2022-08-19T13:30:07;47.55;;;37.42;;
9761;SDS011;4920;49.594;11.022;2022-08-19T13:32:55;49.92;;;38.53;;
9761;SDS011;4920;49.594;11.022;2022-08-19T13:35:45;49.80;;;39.60;;
9761;SDS011;4920;49.594;11.022;2022-08-19T13:38:16;50.72;;;38.42;;
9761;SDS011;4920;49.594;11.022;2022-08-19T13:40:47;46.97;;;37.40;;
9761;SDS011;4920;49.594;11.022;2022-08-19T13:43:17;48.03;;;38.38;;
9761;SDS011;4920;49.594;11.022;2022-08-19T13:45:50;53.20;;;37.65;;
9761;SDS011;4920;49.594;11.022;2022-08-19T13:48:22;41.45;;;35.63;;
9761;SDS011;4920;49.594;11.022;2022-08-19T13:50:53;46.30;;;37.45;;
9761;SDS011;4920;49.594;11.022;2022-08-19T13:53:22;47.20;;;36.90;;
9761;SDS011;4920;49.594;11.022;2022-08-19T13:55:52;44.33;;;35.58;;
9761;SDS011;4920;49.594;11.022;2022-08-19T13:58:21;49.00;;;37.28;;
9761;SDS011;4920;49.594;11.022;2022-08-19T14:00:50;35.75;;;31.65;;
9761;SDS011;4920;49.594;11.022;2022-08-19T14:03:19;28.02;;;24.55;;
9761;SDS011;4920;49.594;11.022;2022-08-19T14:05:47;23.02;;;20.58;;
9761;SDS011;4920;49.594;11.022;2022-08-19T14:08:17;22.15;;;19.85;;
9761;SDS011;4920;49.594;11.022;2022-08-19T14:10:46;20.73;;;18.67;;
9761;SDS011;4920;49.594;11.022;2022-08-19T14:13:16;20.10;;;18.20;;
9761;SDS011;4920;49.594;11.022;2022-08-19T14:15:48;18.48;;;16.77;;
9761;SDS011;4920;49.594;11.022;2022-08-19T14:18:17;17.05;;;15.27;;
9761;SDS011;4920;49.594;11.022;2022-08-19T14:20:46;17.13;;;15.43;;
9761;SDS011;4920;49.594;11.022;2022-08-19T14:23:14;17.33;;;15.63;;
9761;SDS011;4920;49.594;11.022;2022-08-19T14:25:44;18.30;;;16.50;;
9761;SDS011;4920;49.594;11.022;2022-08-19T14:28:13;17.50;;;15.68;;
9761;SDS011;4920;49.594;11.022;2022-08-19T14:30:42;17.48;;;15.88;;
9761;SDS011;4920;49.594;11.022;2022-08-19T14:33:11;17.15;;;15.48;;
9761;SDS011;4920;49.594;11.022;2022-08-19T14:35:40;16.40;;;14.80;;
9761;SDS011;4920;49.594;11.022;2022-08-19T14:38:14;16.30;;;14.70;;
9761;SDS011;4920;49.594;11.022;2022-08-19T14:41:05;16.33;;;14.68;;
9761;SDS011;4920;49.594;11.022;2022-08-19T14:43:35;15.63;;;14.13;;
9761;SDS011;4920;49.594;11.022;2022-08-19T14:46:04;16.88;;;15.27;;
9761;SDS011;4920;49.594;11.022;2022-08-19T14:48:35;16.95;;;15.13;;
9761;SDS011;4920;49.594;11.022;2022-08-19T14:51:07;18.15;;;16.35;;
9761;SDS011;4920;49.594;11.022;2022-08-19T14:53:39;17.42;;;15.73;;
9761;SDS011;4920;49.594;11.022;2022-08-19T14:56:12;19.33;;;15.75;;
9761;SDS011;4920;49.594;11.022;2022-08-19T14:58:42;19.77;;;16.73;;
9761;SDS011;4920;49.594;11.022;2022-08-19T15:01:11;21.15;;;18.40;;